Time;durP1;ratioP1;P1;durP2;ratioP2;P2;SDS_P1;SDS_P2;PMS_P1;PMS_P2;Temp;Humidity;BMP_temperature;BMP_pressure;BME280_temperature;BME280_humidity;BME280_pressure;Samples;Min_cycle;Max_cycle;Signal;HPM_P1;HPM_P2
2023/05/08 00:01:10;;;;;;;17.42;15.73;;;14.80;99.90;;;;;;5172044;27;20037;-60
2023/05/08 00:03:36;;;;;;;17.48;15.65;;;14.70;99.90;;;;;;5171419;27;20066;-61
2023/05/08 00:06:05;;;;;;;17.95;16.05;;;14.70;99.90;;;;;;5169950;27;20447;-60
2023/05/08 00:08:31;;;;;;;18.35;16.55;;;14.70;99.90;;;;;;5169729;27;20139;-61
2023/05/08 00:10:57;;;;;;;17.85;16.08;;;14.70;99.90;;;;;;5171024;27;20035;-61
2023/05/08 00:13:23;;;;;;;18.25;16.35;;;14.70;99.90;;;;;;5171750;27;20102;-61
2023/05/08 00:15:49;;;;;;;16.92;15.30;;;14.70;99.90;;;;;;5171058;27;20047;-61
2023/05/08 00:18:15;;;;;;;17.58;15.07;;;14.70;99.90;;;;;;5172354;27;20030;-61
2023/05/08 00:20:41;;;;;;;18.38;16.48;;;14.70;99.90;;;;;;5140453;27;20389;-63
2023/05/08 00:23:07;;;;;;;20.00;17.02;;;14.70;99.90;;;;;;5173329;27;20042;-62
2023/05/08 00:25:32;;;;;;;18.08;16.30;;;14.60;99.90;;;;;;5175530;27;20041;-59
2023/05/08 00:27:59;;;;;;;18.40;16.58;;;14.50;99.90;;;;;;5176595;27;20042;-61
2023/05/08 00:30:25;;;;;;;19.25;17.25;;;14.50;99.90;;;;;;5174499;27;20045;-60
2023/05/08 00:32:50;;;;;;;19.15;17.25;;;14.50;99.90;;;;;;5176008;27;20129;-60
2023/05/08 00:35:16;;;;;;;19.10;17.20;;;14.50;99.90;;;;;;5174766;27;20101;-60
2023/05/08 00:37:42;;;;;;;19.63;16.88;;;14.40;99.90;;;;;;5174910;27;20042;-60
2023/05/08 00:40:09;;;;;;;18.90;17.05;;;14.40;99.90;;;;;;5175023;27;20031;-61
2023/05/08 00:42:35;;;;;;;19.38;17.35;;;14.40;99.90;;;;;;5176414;27;20045;-60
2023/05/08 00:45:02;;;;;;;19.25;17.35;;;14.40;99.90;;;;;;5175616;27;20439;-60
2023/05/08 00:47:28;;;;;;;19.45;17.52;;;14.30;99.90;;;;;;5175943;27;20038;-62
2023/05/08 00:49:54;;;;;;;19.38;17.38;;;14.20;99.90;;;;;;5174123;27;20037;-60
2023/05/08 00:52:21;;;;;;;19.85;17.85;;;14.20;99.90;;;;;;5176349;27;20038;-61
2023/05/08 00:54:48;;;;;;;19.85;17.85;;;14.10;99.90;;;;;;5169027;27;20039;-61
2023/05/08 00:57:15;;;;;;;19.88;17.77;;;14.10;99.90;;;;;;5156744;27;20053;-59
2023/05/08 00:59:42;;;;;;;20.13;16.92;;;14.00;99.90;;;;;;5174447;27;20094;-61
2023/05/08 01:02:08;;;;;;;20.50;17.35;;;14.00;99.90;;;;;;5175211;27;20477;-61
2023/05/08 01:04:35;;;;;;;20.92;18.75;;;13.90;99.90;;;;;;5174912;27;20049;-60
2023/05/08 01:07:02;;;;;;;20.25;17.90;;;13.90;99.90;;;;;;5142583;27;20107;-59
2023/05/08 01:09:27;;;;;;;20.73;18.63;;;13.80;99.90;;;;;;5170508;27;20397;-61
2023/05/08 01:12:26;;;;;;;20.77;17.73;;;13.80;99.90;;;;;;5176115;27;20098;-59
2023/05/08 01:15:11;;;;;;;20.83;17.48;;;13.70;99.90;;;;;;5174247;27;20389;-60
2023/05/08 01:18:04;;;;;;;20.10;17.92;;;13.60;99.90;;;;;;5174321;27;20041;-62
2023/05/08 01:21:02;;;;;;;22.53;17.77;;;13.50;99.90;;;;;;5174580;27;20163;-59
2023/05/08 01:23:52;;;;;;;21.73;18.83;;;13.50;99.90;;;;;;5151542;27;20035;-61
2023/05/08 01:26:51;;;;;;;21.30;17.52;;;13.40;99.90;;;;;;5172923;27;20038;-59
2023/05/08 01:29:32;;;;;;;23.05;18.20;;;13.40;99.90;;;;;;5176485;27;20042;-60
2023/05/08 01:32:13;;;;;;;22.38;18.75;;;13.30;99.90;;;;;;5176121;27;20107;-59
2023/05/08 01:34:54;;;;;;;21.58;18.63;;;13.30;99.90;;;;;;5141623;27;20039;-62
2023/05/08 01:37:53;;;;;;;25.58;19.15;;;13.30;99.90;;;;;;5172597;27;20034;-59
2023/05/08 01:40:34;;;;;;;23.17;18.90;;;13.20;99.90;;;;;;5062538;27;20076;-61
2023/05/08 01:43:06;;;;;;;22.85;19.02;;;13.20;99.90;;;;;;5161678;27;20034;-60
2023/05/08 01:45:37;;;;;;;22.40;18.95;;;13.10;99.90;;;;;;5175871;27;20042;-61
2023/05/08 01:48:08;;;;;;;22.17;19.23;;;13.10;99.90;;;;;;5175786;27;20042;-60
2023/05/08 01:50:38;;;;;;;22.40;19.65;;;13.00;99.90;;;;;;5174354;27;20070;-61
2023/05/08 01:53:19;;;;;;;24.45;19.13;;;13.00;99.90;;;;;;5173029;27;20080;-61
2023/05/08 01:55:47;;;;;;;22.67;19.33;;;12.90;99.90;;;;;;5174267;27;21300;-61
2023/05/08 01:58:13;;;;;;;22.55;20.15;;;12.90;99.90;;;;;;5173080;27;20026;-59
2023/05/08 02:00:41;;;;;;;22.73;19.80;;;12.90;99.90;;;;;;5174620;27;20030;-60
2023/05/08 02:03:08;;;;;;;24.15;19.35;;;12.80;99.90;;;;;;5173678;27;20070;-60
2023/05/08 02:05:36;;;;;;;23.30;18.98;;;12.80;99.90;;;;;;5174087;27;20073;-62
2023/05/08 02:08:03;;;;;;;25.75;19.90;;;12.80;99.90;;;;;;5174703;27;20041;-60
2023/05/08 02:10:30;;;;;;;23.90;19.90;;;12.80;99.90;;;;;;5175700;27;20110;-60
2023/05/08 02:12:58;;;;;;;23.02;19.55;;;12.80;99.90;;;;;;5174559;27;20042;-58
2023/05/08 02:15:26;;;;;;;24.20;19.25;;;12.80;99.90;;;;;;5173602;27;20069;-62
2023/05/08 02:17:54;;;;;;;24.90;20.08;;;12.70;99.90;;;;;;5172969;27;20473;-59
2023/05/08 02:20:21;;;;;;;24.73;19.23;;;12.70;99.90;;;;;;5174014;27;20030;-60
2023/05/08 02:22:50;;;;;;;24.48;19.92;;;12.60;99.90;;;;;;5173822;27;20069;-62
2023/05/08 02:25:17;;;;;;;23.75;20.00;;;12.60;99.90;;;;;;5175420;27;20094;-61
2023/05/08 02:27:44;;;;;;;23.30;21.00;;;12.60;99.90;;;;;;5173952;27;20101;-61
2023/05/08 02:30:14;;;;;;;22.92;19.20;;;12.60;99.90;;;;;;5173372;27;20038;-58
2023/05/08 02:32:44;;;;;;;25.60;20.10;;;12.60;99.90;;;;;;5172311;27;20042;-61
2023/05/08 02:35:18;;;;;;;23.55;21.25;;;12.60;99.90;;;;;;5174025;27;20123;-59
2023/05/08 02:37:48;;;;;;;24.15;21.73;;;12.50;99.90;;;;;;5170863;27;20034;-61
2023/05/08 02:40:16;;;;;;;25.63;19.88;;;12.50;99.90;;;;;;5175121;27;20393;-60
2023/05/08 02:42:43;;;;;;;24.45;19.20;;;12.50;99.90;;;;;;5174628;27;20105;-61
2023/05/08 02:45:11;;;;;;;23.75;21.35;;;12.40;99.90;;;;;;5172682;27;21113;-59
2023/05/08 02:47:50;;;;;;;23.02;18.63;;;12.40;99.90;;;;;;5150287;27;20057;-61
2023/05/08 02:50:18;;;;;;;24.48;19.88;;;12.40;99.90;;;;;;5171545;27;20038;-59
2023/05/08 02:52:56;;;;;;;23.88;19.50;;;12.40;99.90;;;;;;5173728;27;20057;-61
2023/05/08 02:55:52;;;;;;;23.42;21.13;;;12.40;99.90;;;;;;5174561;27;20030;-61
2023/05/08 02:58:36;;;;;;;24.25;19.17;;;12.40;99.90;;;;;;5173549;27;20061;-60
2023/05/08 03:01:06;;;;;;;22.58;19.15;;;12.30;99.90;;;;;;5172942;27;20059;-61
2023/05/08 03:03:39;;;;;;;25.35;19.45;;;12.30;99.90;;;;;;5171750;27;20042;-59
2023/05/08 03:06:12;;;;;;;25.15;19.08;;;12.30;99.90;;;;;;5173447;27;20061;-59
2023/05/08 03:08:40;;;;;;;25.98;19.73;;;12.20;99.90;;;;;;5173440;27;20038;-60
2023/05/08 03:11:18;;;;;;;26.20;20.00;;;12.20;99.90;;;;;;5174148;27;20045;-60
2023/05/08 03:13:46;;;;;;;23.90;21.50;;;12.20;99.90;;;;;;5171253;27;20117;-60
2023/05/08 03:16:21;;;;;;;23.23;18.73;;;12.20;99.90;;;;;;5172274;27;20503;-60
2023/05/08 03:18:55;;;;;;;23.90;21.52;;;12.20;99.90;;;;;;5172249;27;20117;-60
2023/05/08 03:21:25;;;;;;;26.80;19.63;;;12.20;99.90;;;;;;5171521;27;20087;-60
2023/05/08 03:23:53;;;;;;;25.58;19.48;;;12.10;99.90;;;;;;5173005;27;20038;-61
2023/05/08 03:26:20;;;;;;;24.65;19.70;;;12.10;99.90;;;;;;5172187;27;20040;-61
2023/05/08 03:28:50;;;;;;;24.58;19.55;;;12.00;99.90;;;;;;5139051;27;20042;-61
2023/05/08 03:31:20;;;;;;;22.77;20.48;;;12.00;99.90;;;;;;5173357;27;20030;-60
2023/05/08 03:33:52;;;;;;;23.80;21.40;;;12.00;99.90;;;;;;5171916;27;20541;-60
2023/05/08 03:36:19;;;;;;;23.17;19.23;;;12.00;99.90;;;;;;5172245;27;20098;-61
2023/05/08 03:38:45;;;;;;;25.05;19.73;;;12.00;99.90;;;;;;5171672;27;20053;-62
2023/05/08 03:41:11;;;;;;;22.98;18.10;;;11.90;99.90;;;;;;5172922;27;20488;-60
2023/05/08 03:43:37;;;;;;;23.77;21.33;;;11.90;99.90;;;;;;5171478;27;20534;-61
2023/05/08 03:46:07;;;;;;;23.63;19.58;;;11.90;99.90;;;;;;5172032;27;20126;-60
2023/05/08 03:48:33;;;;;;;23.70;19.48;;;11.90;99.90;;;;;;5146430;27;20041;-61
2023/05/08 03:51:03;;;;;;;24.58;20.05;;;11.80;99.90;;;;;;5170734;27;20042;-60
2023/05/08 03:53:31;;;;;;;24.05;19.20;;;11.80;99.90;;;;;;5143209;27;20069;-61
2023/05/08 03:55:58;;;;;;;24.20;18.73;;;11.80;99.90;;;;;;5161072;27;20034;-61
2023/05/08 03:58:45;;;;;;;23.00;19.30;;;11.70;99.90;;;;;;5176825;27;20057;-61
2023/05/08 04:01:13;;;;;;;25.05;19.65;;;11.80;99.90;;;;;;5177986;27;20041;-61
2023/05/08 04:04:20;;;;;;;22.42;18.55;;;11.70;99.90;;;;;;5146763;27;20117;-59
2023/05/08 04:06:50;;;;;;;25.08;19.88;;;11.70;99.90;;;;;;5148554;27;20102;-61
2023/05/08 04:09:37;;;;;;;22.63;18.63;;;11.70;99.90;;;;;;5178556;27;20549;-63
2023/05/08 04:12:16;;;;;;;22.50;17.98;;;11.60;99.90;;;;;;5178378;27;20102;-59
2023/05/08 04:14:48;;;;;;;22.33;18.40;;;11.60;99.90;;;;;;5138685;27;20047;-59
2023/05/08 04:17:21;;;;;;;23.38;19.17;;;11.60;99.90;;;;;;5150191;27;20111;-61
2023/05/08 04:19:54;;;;;;;23.25;19.27;;;11.50;99.90;;;;;;5169835;27;20038;-62
2023/05/08 04:22:24;;;;;;;22.35;18.88;;;11.50;99.90;;;;;;5178622;27;20052;-60
2023/05/08 04:24:51;;;;;;;22.35;19.25;;;11.50;99.90;;;;;;5178161;27;20516;-60
2023/05/08 04:27:17;;;;;;;23.00;19.35;;;11.50;99.90;;;;;;5179066;27;20117;-60
2023/05/08 04:29:43;;;;;;;22.75;18.65;;;11.50;99.90;;;;;;5177898;27;20030;-63
2023/05/08 04:32:09;;;;;;;24.95;19.60;;;11.50;99.90;;;;;;5178522;27;20472;-60
2023/05/08 04:34:36;;;;;;;24.70;19.35;;;11.50;99.90;;;;;;5177771;27;20421;-59
2023/05/08 04:37:02;;;;;;;23.50;17.65;;;11.40;99.90;;;;;;5178975;27;20082;-61
2023/05/08 04:39:28;;;;;;;21.02;17.05;;;11.40;99.90;;;;;;5177720;27;20448;-59
2023/05/08 04:42:00;;;;;;;23.88;17.95;;;11.40;99.90;;;;;;5178440;27;20117;-61
2023/05/08 04:44:25;;;;;;;22.10;17.45;;;11.40;99.90;;;;;;5177001;27;20171;-60
2023/05/08 04:46:51;;;;;;;22.35;17.77;;;11.40;99.90;;;;;;5178660;27;20117;-61
2023/05/08 04:49:16;;;;;;;22.95;17.98;;;11.40;99.90;;;;;;5180070;27;20038;-59
2023/05/08 04:51:42;;;;;;;20.38;16.60;;;11.50;99.90;;;;;;5178534;27;20048;-58
2023/05/08 04:54:08;;;;;;;21.05;18.88;;;11.50;99.90;;;;;;5178188;27;20041;-60
2023/05/08 04:56:34;;;;;;;22.42;17.10;;;11.50;99.90;;;;;;5179145;27;20034;-60
2023/05/08 04:58:59;;;;;;;21.60;18.08;;;11.50;99.90;;;;;;5178152;27;20102;-61
2023/05/08 05:01:25;;;;;;;23.95;17.27;;;11.60;99.90;;;;;;5178636;27;20042;-61
2023/05/08 05:03:52;;;;;;;21.20;17.27;;;11.60;99.90;;;;;;5178460;27;20090;-60
2023/05/08 05:06:17;;;;;;;20.40;17.92;;;11.60;99.90;;;;;;5145187;27;20070;-60
2023/05/08 05:08:43;;;;;;;21.02;17.42;;;11.60;99.90;;;;;;5175998;27;20042;-59
2023/05/08 05:11:09;;;;;;;24.40;18.73;;;11.60;99.90;;;;;;5174415;27;20038;-60
2023/05/08 05:13:34;;;;;;;22.15;16.83;;;11.70;99.90;;;;;;5174430;27;20048;-58
2023/05/08 05:16:00;;;;;;;20.73;16.73;;;11.70;99.90;;;;;;5141243;27;20096;-60
2023/05/08 05:18:26;;;;;;;21.45;17.15;;;11.70;99.90;;;;;;5172013;27;20541;-60
2023/05/08 05:20:52;;;;;;;20.80;17.67;;;11.70;99.90;;;;;;5174435;27;20031;-60
2023/05/08 05:23:17;;;;;;;21.45;17.00;;;11.70;99.90;;;;;;5174678;27;20125;-62
2023/05/08 05:25:43;;;;;;;20.52;17.05;;;11.80;99.90;;;;;;5174718;27;20072;-59
2023/05/08 05:28:08;;;;;;;20.63;17.30;;;11.80;99.90;;;;;;5135049;27;20026;-58
2023/05/08 05:30:34;;;;;;;19.98;16.33;;;11.80;99.90;;;;;;5158024;27;20026;-61
2023/05/08 05:33:00;;;;;;;22.25;16.60;;;11.90;99.90;;;;;;5174526;27;20037;-59
2023/05/08 05:35:25;;;;;;;20.85;16.48;;;12.00;99.90;;;;;;5174522;27;20392;-61
2023/05/08 05:37:51;;;;;;;21.48;16.95;;;12.00;99.90;;;;;;5173601;27;20088;-61
2023/05/08 05:40:17;;;;;;;20.92;17.10;;;12.10;99.90;;;;;;5173073;27;20030;-60
2023/05/08 05:42:48;;;;;;;19.50;15.93;;;12.10;99.90;;;;;;5174223;27;20118;-60
2023/05/08 05:45:14;;;;;;;21.00;16.40;;;12.10;99.90;;;;;;5174893;27;20053;-59
2023/05/08 05:47:44;;;;;;;20.55;16.20;;;12.20;99.90;;;;;;5169813;27;20038;-61
2023/05/08 05:50:10;;;;;;;22.83;16.63;;;12.20;99.90;;;;;;5174262;27;20034;-60
2023/05/08 05:52:36;;;;;;;19.02;15.77;;;12.20;99.90;;;;;;5175778;27;20077;-61
2023/05/08 05:55:01;;;;;;;20.65;17.02;;;12.30;99.90;;;;;;5174225;27;20473;-60
2023/05/08 05:57:27;;;;;;;20.50;16.02;;;12.30;99.90;;;;;;5173695;27;20046;-59
2023/05/08 05:59:53;;;;;;;21.17;16.23;;;12.30;99.90;;;;;;5175030;27;20471;-60
2023/05/08 06:02:19;;;;;;;18.77;16.02;;;12.40;99.90;;;;;;5159874;27;20085;-59
2023/05/08 06:04:45;;;;;;;19.42;14.93;;;12.40;99.90;;;;;;5152857;27;20035;-61
2023/05/08 06:07:10;;;;;;;21.70;15.73;;;12.50;99.90;;;;;;5128778;27;20034;-61
2023/05/08 06:09:36;;;;;;;19.48;15.27;;;12.50;99.90;;;;;;5132177;27;20094;-59
2023/05/08 06:12:02;;;;;;;18.15;15.32;;;12.50;99.90;;;;;;5159365;27;20125;-60
2023/05/08 06:14:27;;;;;;;18.30;15.63;;;12.60;99.90;;;;;;5157500;27;20462;-63
2023/05/08 06:16:53;;;;;;;19.20;15.48;;;12.60;99.90;;;;;;5156867;27;20042;-59
2023/05/08 06:19:18;;;;;;;19.52;16.30;;;12.60;99.90;;;;;;5157741;27;20050;-59
2023/05/08 06:21:44;;;;;;;19.38;15.68;;;12.70;99.90;;;;;;5153033;27;20075;-60
2023/05/08 06:24:10;;;;;;;19.10;16.52;;;12.80;99.90;;;;;;5156783;27;20033;-63
2023/05/08 06:26:36;;;;;;;19.30;15.63;;;12.90;99.90;;;;;;5132031;27;20042;-60
2023/05/08 06:29:01;;;;;;;19.88;15.77;;;12.90;99.90;;;;;;5152375;27;20121;-61
2023/05/08 06:31:27;;;;;;;18.77;16.50;;;13.00;99.90;;;;;;5152662;27;20443;-60
2023/05/08 06:33:53;;;;;;;20.00;16.67;;;13.10;99.90;;;;;;5154300;27;20500;-59
2023/05/08 06:36:18;;;;;;;19.70;16.55;;;13.10;99.90;;;;;;5140791;27;20510;-62
2023/05/08 06:38:44;;;;;;;17.95;16.15;;;13.20;99.90;;;;;;5140357;27;20047;-62
2023/05/08 06:41:10;;;;;;;17.30;14.70;;;13.30;99.90;;;;;;5145570;27;20721;-62
2023/05/08 06:43:35;;;;;;;17.98;15.35;;;13.30;99.90;;;;;;5140499;27;20034;-63
2023/05/08 06:46:01;;;;;;;17.30;15.13;;;13.40;99.90;;;;;;5149541;27;20077;-58
2023/05/08 06:48:27;;;;;;;17.85;15.90;;;13.40;99.90;;;;;;5153557;27;20075;-58
2023/05/08 06:50:54;;;;;;;20.25;16.15;;;13.50;99.90;;;;;;5153472;27;20414;-63
2023/05/08 06:53:19;;;;;;;19.70;15.85;;;13.50;99.90;;;;;;5155227;27;20072;-60
2023/05/08 06:55:45;;;;;;;18.60;15.80;;;13.50;99.90;;;;;;5152298;27;20023;-63
2023/05/08 06:58:11;;;;;;;20.33;16.90;;;13.50;99.90;;;;;;5152807;27;20034;-60
2023/05/08 07:00:36;;;;;;;19.02;16.08;;;13.60;99.90;;;;;;5149368;27;20037;-63
2023/05/08 07:03:02;;;;;;;18.63;15.57;;;13.70;99.90;;;;;;5153360;27;20034;-58
2023/05/08 07:05:28;;;;;;;19.98;16.17;;;13.70;99.90;;;;;;5156119;27;20042;-59
2023/05/08 07:07:54;;;;;;;17.85;15.20;;;13.80;99.90;;;;;;5154852;27;20045;-59
2023/05/08 07:10:21;;;;;;;18.70;16.55;;;13.80;99.90;;;;;;5153798;27;20035;-60
2023/05/08 07:12:50;;;;;;;17.35;15.65;;;13.90;99.90;;;;;;5158848;27;20058;-60
2023/05/08 07:15:16;;;;;;;18.58;15.73;;;14.00;99.90;;;;;;5157212;27;20464;-61
2023/05/08 07:17:42;;;;;;;19.02;15.40;;;14.00;99.90;;;;;;5154080;27;20106;-60
2023/05/08 07:20:08;;;;;;;17.08;15.40;;;14.10;99.90;;;;;;5156925;27;20030;-62
2023/05/08 07:22:34;;;;;;;18.30;15.45;;;14.20;99.90;;;;;;5155176;27;20076;-60
2023/05/08 07:24:59;;;;;;;17.80;15.63;;;14.20;99.90;;;;;;5150571;27;20113;-58
2023/05/08 07:27:25;;;;;;;17.92;15.63;;;14.30;99.90;;;;;;5152017;27;20053;-61
2023/05/08 07:29:51;;;;;;;18.35;16.45;;;14.40;99.90;;;;;;5156119;27;20061;-56
2023/05/08 07:32:17;;;;;;;17.65;15.77;;;14.50;99.90;;;;;;5152932;27;20074;-59
2023/05/08 07:34:42;;;;;;;17.63;15.93;;;14.70;99.90;;;;;;5148011;27;20588;-58
2023/05/08 07:37:08;;;;;;;17.63;15.82;;;14.80;99.90;;;;;;5149672;27;20034;-57
2023/05/08 07:39:34;;;;;;;17.90;16.10;;;14.90;99.90;;;;;;5144230;27;20042;-57
2023/05/08 07:42:00;;;;;;;16.80;15.13;;;15.00;99.90;;;;;;5146825;27;20030;-60
2023/05/08 07:44:26;;;;;;;17.60;15.90;;;15.00;99.90;;;;;;5153657;27;20034;-60
2023/05/08 07:46:51;;;;;;;18.15;16.10;;;15.20;99.90;;;;;;5154754;27;20039;-60
2023/05/08 07:49:17;;;;;;;18.42;16.55;;;15.30;99.90;;;;;;5157581;27;20086;-59
2023/05/08 07:51:43;;;;;;;17.08;15.38;;;15.40;99.90;;;;;;5159948;27;20034;-59
2023/05/08 07:54:08;;;;;;;17.83;15.80;;;15.50;99.90;;;;;;5155660;27;20073;-59
2023/05/08 07:56:34;;;;;;;17.45;15.65;;;15.60;99.90;;;;;;5157630;27;20038;-60
2023/05/08 07:59:00;;;;;;;18.73;16.83;;;15.60;99.90;;;;;;5152876;27;20034;-58
2023/05/08 08:01:26;;;;;;;18.10;16.30;;;15.70;99.90;;;;;;5154341;27;20026;-60
2023/05/08 08:03:53;;;;;;;19.23;17.33;;;15.70;99.90;;;;;;5155291;27;20103;-57
2023/05/08 08:06:18;;;;;;;17.83;16.02;;;15.80;99.90;;;;;;5152420;27;20117;-56
2023/05/08 08:08:44;;;;;;;17.63;15.82;;;15.80;99.90;;;;;;5148843;27;20049;-57
2023/05/08 08:11:10;;;;;;;17.85;16.15;;;15.90;99.90;;;;;;5115611;27;20035;-60
2023/05/08 08:13:36;;;;;;;18.38;16.40;;;15.90;99.90;;;;;;5168091;27;20038;-61
2023/05/08 08:16:03;;;;;;;17.92;16.10;;;15.90;99.90;;;;;;5156958;27;20087;-57
2023/05/08 08:18:29;;;;;;;19.38;17.35;;;15.90;99.90;;;;;;5171221;27;20090;-58
2023/05/08 08:20:55;;;;;;;19.15;17.25;;;16.00;99.90;;;;;;5171391;27;20026;-57
2023/05/08 08:23:21;;;;;;;18.23;16.27;;;16.10;99.90;;;;;;5140121;27;20034;-57
2023/05/08 08:25:46;;;;;;;18.45;16.50;;;16.10;99.90;;;;;;5164934;27;20035;-57
2023/05/08 08:28:12;;;;;;;18.38;16.45;;;16.20;99.90;;;;;;5139447;27;20123;-58
2023/05/08 08:30:38;;;;;;;17.77;16.02;;;16.30;99.90;;;;;;5164955;27;20053;-61
2023/05/08 08:33:05;;;;;;;18.17;16.38;;;16.30;99.90;;;;;;5140175;27;20046;-56
2023/05/08 08:35:32;;;;;;;18.60;16.70;;;16.40;99.90;;;;;;5164013;27;20392;-59
2023/05/08 08:37:57;;;;;;;18.92;17.05;;;16.50;99.90;;;;;;5170418;27;20038;-60
2023/05/08 08:40:23;;;;;;;20.27;16.58;;;16.60;99.90;;;;;;5138262;27;20038;-58
2023/05/08 08:42:49;;;;;;;17.80;16.05;;;16.60;99.90;;;;;;5171825;27;20042;-57
2023/05/08 08:45:15;;;;;;;18.42;16.63;;;16.60;99.90;;;;;;5174593;27;20038;-58
2023/05/08 08:47:43;;;;;;;19.75;17.67;;;16.70;99.90;;;;;;5174885;27;20085;-58
2023/05/08 08:50:12;;;;;;;18.30;16.50;;;16.80;99.90;;;;;;5175180;27;20034;-59
2023/05/08 08:53:12;;;;;;;19.13;17.27;;;16.80;99.90;;;;;;5174396;27;20034;-58
2023/05/08 08:55:45;;;;;;;19.95;17.90;;;16.90;99.90;;;;;;5151309;27;20050;-61
2023/05/08 08:58:36;;;;;;;19.33;17.13;;;17.00;99.90;;;;;;5174535;27;20038;-57
2023/05/08 09:01:04;;;;;;;18.63;16.70;;;17.20;99.90;;;;;;5173444;27;20049;-59
2023/05/08 09:03:33;;;;;;;20.17;18.10;;;17.20;99.90;;;;;;5172196;27;20113;-60
2023/05/08 09:06:02;;;;;;;19.05;17.05;;;17.40;99.90;;;;;;5174691;27;20042;-58
2023/05/08 09:08:28;;;;;;;19.45;17.55;;;17.50;99.90;;;;;;5145775;27;20119;-61
2023/05/08 09:10:57;;;;;;;18.48;16.55;;;17.70;99.90;;;;;;5162569;27;20049;-59
2023/05/08 09:13:22;;;;;;;19.77;17.88;;;17.70;99.90;;;;;;5175972;27;20123;-59
2023/05/08 09:15:49;;;;;;;19.42;17.52;;;17.80;99.90;;;;;;5176188;27;20063;-59
2023/05/08 09:18:15;;;;;;;18.30;16.38;;;17.90;99.90;;;;;;5174412;27;20079;-60
2023/05/08 09:20:42;;;;;;;19.25;17.35;;;17.90;99.90;;;;;;5173738;27;20489;-57
2023/05/08 09:23:08;;;;;;;19.67;17.77;;;18.10;99.90;;;;;;5171966;27;20072;-58
2023/05/08 09:25:44;;;;;;;19.13;17.23;;;18.30;99.90;;;;;;5173643;27;20083;-59
2023/05/08 09:28:20;;;;;;;19.45;17.45;;;18.40;99.90;;;;;;5175815;27;20078;-60
2023/05/08 09:30:52;;;;;;;19.38;17.48;;;18.50;99.90;;;;;;5157091;27;20042;-60
2023/05/08 09:33:18;;;;;;;20.30;18.30;;;18.70;99.90;;;;;;5174485;27;20125;-60
2023/05/08 09:35:47;;;;;;;19.85;17.75;;;18.90;99.90;;;;;;5172946;27;20053;-63
2023/05/08 09:38:36;;;;;;;19.92;17.83;;;19.10;99.90;;;;;;5141607;27;20041;-58
2023/05/08 09:41:14;;;;;;;18.45;16.55;;;19.30;99.90;;;;;;5149565;27;20478;-57
2023/05/08 09:43:40;;;;;;;19.38;17.20;;;19.40;99.90;;;;;;5173560;27;20137;-59
2023/05/08 09:46:25;;;;;;;20.48;18.20;;;19.40;99.90;;;;;;5174835;27;20034;-58
2023/05/08 09:48:53;;;;;;;19.10;17.05;;;19.50;99.90;;;;;;5173925;27;20038;-59
2023/05/08 09:51:20;;;;;;;19.05;17.13;;;19.60;99.90;;;;;;5174445;27;20034;-60
2023/05/08 09:53:48;;;;;;;20.83;17.75;;;19.70;99.90;;;;;;5175331;27;20038;-58
2023/05/08 09:56:14;;;;;;;18.33;16.35;;;19.90;99.90;;;;;;5174199;27;20133;-61
2023/05/08 09:58:44;;;;;;;18.50;16.60;;;20.00;99.90;;;;;;5172688;27;20065;-60
2023/05/08 10:01:48;;;;;;;18.73;16.85;;;20.20;99.90;;;;;;5173835;27;20548;-56
2023/05/08 10:04:14;;;;;;;19.13;17.27;;;20.30;99.90;;;;;;5069506;28;20040;-58
2023/05/08 10:06:40;;;;;;;18.52;16.63;;;20.40;99.90;;;;;;5075746;28;20797;-60
2023/05/08 10:09:07;;;;;;;18.85;16.85;;;20.40;99.90;;;;;;5107131;27;20070;-59
2023/05/08 10:11:32;;;;;;;20.10;17.92;;;20.50;99.90;;;;;;5170923;27;20034;-60
2023/05/08 10:13:58;;;;;;;19.77;17.70;;;20.60;99.90;;;;;;5172850;27;20129;-59
2023/05/08 10:16:28;;;;;;;19.83;17.83;;;20.70;99.90;;;;;;5173115;27;20045;-58
2023/05/08 10:19:01;;;;;;;20.00;17.05;;;20.70;99.90;;;;;;5173364;27;20048;-60
2023/05/08 10:21:36;;;;;;;19.33;17.23;;;20.70;99.90;;;;;;5173570;27;20377;-57
2023/05/08 10:24:04;;;;;;;19.60;17.60;;;20.80;99.90;;;;;;5173009;27;20481;-60
2023/05/08 10:26:32;;;;;;;19.48;17.58;;;20.90;99.90;;;;;;5173648;27;20030;-58
2023/05/08 10:29:07;;;;;;;18.05;16.25;;;21.00;99.90;;;;;;5171874;27;20042;-58
2023/05/08 10:31:35;;;;;;;19.10;17.02;;;21.10;99.90;;;;;;5173125;27;20034;-60
2023/05/08 10:34:02;;;;;;;19.75;16.52;;;21.30;99.90;;;;;;5172539;27;20422;-60
2023/05/08 10:36:30;;;;;;;17.17;15.48;;;21.50;99.90;;;;;;5172625;27;20059;-58
2023/05/08 10:38:59;;;;;;;15.93;14.23;;;21.50;99.90;;;;;;5173642;27;20038;-61
2023/05/08 10:41:25;;;;;;;16.65;14.48;;;21.50;99.90;;;;;;5174372;27;20030;-61
2023/05/08 10:43:52;;;;;;;17.67;13.98;;;21.60;99.90;;;;;;5172673;27;20525;-60
2023/05/08 10:46:21;;;;;;;16.83;15.07;;;21.70;99.90;;;;;;5139178;27;20076;-60
2023/05/08 10:48:57;;;;;;;18.25;16.00;;;21.80;99.90;;;;;;5172197;27;20038;-57
2023/05/08 10:51:34;;;;;;;17.60;15.70;;;21.80;99.90;;;;;;5139940;27;20045;-59
2023/05/08 10:54:10;;;;;;;20.50;17.00;;;22.00;99.90;;;;;;5172174;27;20091;-61
2023/05/08 10:56:37;;;;;;;19.70;17.60;;;22.00;99.90;;;;;;5171531;27;20030;-60
2023/05/08 10:59:05;;;;;;;21.23;18.77;;;22.00;99.90;;;;;;5172726;27;20040;-61
2023/05/08 11:01:30;;;;;;;20.48;18.33;;;22.10;99.90;;;;;;5171732;27;20121;-59
2023/05/08 11:03:56;;;;;;;21.52;19.23;;;22.20;99.90;;;;;;5139955;27;20212;-59
2023/05/08 11:06:42;;;;;;;21.95;19.48;;;22.30;99.90;;;;;;5170192;27;20370;-59
2023/05/08 11:09:13;;;;;;;20.73;18.52;;;22.20;99.90;;;;;;5170391;27;20116;-59
2023/05/08 11:11:40;;;;;;;19.80;17.50;;;22.20;99.90;;;;;;5172164;27;20045;-58
2023/05/08 11:14:05;;;;;;;21.23;19.00;;;22.30;99.90;;;;;;5171640;27;20069;-61
2023/05/08 11:16:53;;;;;;;19.75;17.63;;;22.50;99.90;;;;;;5171684;27;20392;-58
2023/05/08 11:19:23;;;;;;;22.00;18.42;;;22.50;99.90;;;;;;5170971;27;20498;-57
2023/05/08 11:22:18;;;;;;;21.00;18.30;;;22.50;99.90;;;;;;5137733;27;20046;-58
2023/05/08 11:24:47;;;;;;;20.55;18.40;;;22.50;99.90;;;;;;5170679;27;20053;-59
2023/05/08 11:27:14;;;;;;;23.25;17.25;;;22.30;99.90;;;;;;5173585;27;20113;-61
2023/05/08 11:29:39;;;;;;;19.92;17.83;;;22.20;99.90;;;;;;5172240;27;20026;-62
2023/05/08 11:32:05;;;;;;;22.58;19.20;;;22.20;99.90;;;;;;5170769;27;20060;-62
2023/05/08 11:34:47;;;;;;;20.90;18.27;;;22.20;99.90;;;;;;5171396;27;20090;-60
2023/05/08 11:37:18;;;;;;;21.92;19.05;;;22.10;99.90;;;;;;5170709;27;20055;-58
2023/05/08 11:39:44;;;;;;;21.48;18.77;;;22.00;99.90;;;;;;5172801;27;20038;-57
2023/05/08 11:42:25;;;;;;;20.58;18.38;;;22.00;99.90;;;;;;5171564;27;20034;-61
2023/05/08 11:45:03;;;;;;;21.50;19.08;;;22.20;99.90;;;;;;5171215;27;20038;-60
2023/05/08 11:47:37;;;;;;;20.92;18.48;;;22.20;99.90;;;;;;5140683;27;20046;-60
2023/05/08 11:50:04;;;;;;;20.58;18.48;;;22.30;99.90;;;;;;5164335;27;20497;-58
2023/05/08 11:52:38;;;;;;;21.98;19.67;;;22.50;99.90;;;;;;5169040;27;20089;-60
2023/05/08 11:55:14;;;;;;;20.58;18.38;;;22.30;99.90;;;;;;5170966;27;20037;-58
2023/05/08 11:57:40;;;;;;;21.00;18.80;;;22.30;99.90;;;;;;5172302;27;20034;-58
2023/05/08 12:00:10;;;;;;;20.92;18.80;;;22.30;99.90;;;;;;5173018;27;20082;-60
2023/05/08 12:02:40;;;;;;;22.90;19.60;;;22.40;99.90;;;;;;5173469;27;20130;-60
2023/05/08 12:05:07;;;;;;;23.17;20.00;;;22.50;99.90;;;;;;5171003;27;20042;-58
2023/05/08 12:07:41;;;;;;;22.67;18.42;;;22.50;99.90;;;;;;5170894;27;20038;-60
2023/05/08 12:10:08;;;;;;;21.02;18.77;;;22.50;99.90;;;;;;5169425;27;20038;-60
2023/05/08 12:12:40;;;;;;;21.25;18.67;;;22.40;99.90;;;;;;5170305;27;20694;-62
2023/05/08 12:15:11;;;;;;;20.95;18.63;;;22.30;99.90;;;;;;5148592;27;20617;-61
2023/05/08 12:17:37;;;;;;;20.92;18.70;;;22.20;99.90;;;;;;5170625;27;20070;-58
2023/05/08 12:20:16;;;;;;;23.10;20.35;;;22.10;99.90;;;;;;5174079;27;20034;-60
2023/05/08 12:22:49;;;;;;;21.92;19.58;;;22.00;99.90;;;;;;5175676;27;20044;-60
2023/05/08 12:25:16;;;;;;;23.67;19.50;;;21.90;99.90;;;;;;5142440;27;20038;-59
2023/05/08 12:27:42;;;;;;;23.13;20.10;;;21.80;99.90;;;;;;5172950;27;20034;-60
2023/05/08 12:30:10;;;;;;;22.33;19.98;;;21.80;99.90;;;;;;5175921;27;20031;-59
2023/05/08 12:32:38;;;;;;;25.58;21.58;;;21.80;99.90;;;;;;5174693;27;20077;-60
2023/05/08 12:35:08;;;;;;;25.35;22.33;;;21.80;99.90;;;;;;5175427;27;20034;-58
2023/05/08 12:37:35;;;;;;;25.23;22.52;;;21.90;99.90;;;;;;5172443;27;20041;-60
2023/05/08 12:40:01;;;;;;;24.20;21.50;;;22.00;99.90;;;;;;5175163;27;20084;-58